< Typhoon 198721 1987 Season Typhoon 198723 >
Typhoon 198722 (NINA)
General InformationTrack Information on Google MapsDetailed Wind InformationList of All Images || Disaster Info.ResourceGoogle EarthGE AnimationAtom FeedGeoJSON
Detalied Best Track (Time Zone = UTC)
Year Month Day Hour Lat. Long. Pressure (hPa) Wind (kt) Class Image Chart
1987 11 19 06 2.5 160.5 1002 0 2 Image Chart
1987 11 19 12 3.3 159.1 1002 0 2 Image Chart
1987 11 19 18 4.1 157.6 1000 35 3 Image Chart
1987 11 20 00 4.9 156.0 998 40 3 Image Chart
1987 11 20 06 5.8 154.3 994 45 3 Image Chart
1987 11 20 12 6.6 152.7 992 45 3 Image Chart
1987 11 20 18 7.5 151.1 990 50 4 Image Chart
1987 11 21 00 8.5 149.5 985 55 4 Image Chart
1987 11 21 06 9.1 147.9 985 55 4 Image Chart
1987 11 21 12 9.6 146.1 980 55 4 Image Chart
1987 11 21 18 9.8 144.3 980 60 4 Image Chart
1987 11 22 00 10.1 142.7 980 60 4 Image Chart
1987 11 22 06 10.6 141.1 975 65 5 Image Chart
1987 11 22 12 10.8 139.2 975 65 5 Image Chart
1987 11 22 18 10.8 137.4 970 65 5 Image Chart
1987 11 23 00 10.9 135.9 970 70 5 Image Chart
1987 11 23 06 11.0 134.6 965 75 5 Image Chart
1987 11 23 12 11.2 133.4 965 75 5 Image Chart
1987 11 23 18 11.4 132.6 965 75 5 Image Chart
1987 11 24 00 11.4 131.6 965 75 5 Image Chart
1987 11 24 06 11.6 130.6 960 75 5 Image Chart
1987 11 24 12 11.9 129.7 955 75 5 Image Chart
1987 11 24 18 12.4 128.7 950 80 5 Image Chart
1987 11 25 00 12.6 127.5 940 90 5 Image Chart
1987 11 25 06 12.9 126.1 930 90 5 Image Chart
1987 11 25 12 13.2 124.5 930 90 5 Image Chart
1987 11 25 18 13.4 122.7 940 90 5 Image Chart
1987 11 26 00 13.5 120.8 945 90 5 Image Chart
1987 11 26 06 14.2 119.1 950 80 5 Image Chart
1987 11 26 12 14.8 117.6 955 80 5 Image Chart
1987 11 26 18 15.4 116.3 955 75 5 Image Chart
1987 11 27 00 15.9 115.1 960 75 5 Image Chart
1987 11 27 06 16.5 113.9 960 75 5 Image Chart
1987 11 27 12 17.5 113.1 965 70 5 Image Chart
1987 11 27 18 18.5 112.8 965 70 5 Image Chart
1987 11 28 00 19.3 113.0 960 65 5 Image Chart
1987 11 28 06 20.0 113.3 965 65 5 Image Chart
1987 11 28 12 20.2 114.0 970 60 4 Image Chart
1987 11 28 18 19.9 114.7 980 50 4 Image Chart
1987 11 29 00 19.2 115.3 990 40 3 Image Chart
1987 11 29 06 18.0 115.8 996 40 3 Image Chart
1987 11 29 12 17.1 115.9 1000 40 3 Image Chart
1987 11 29 18 16.3 115.8 1004 0 2 Image Chart
1987 11 30 00 15.5 115.5 1008 0 2 Image Chart
Japan Meteorological Agency Best Track Data | Correction Date : 1992-10-21
< Typhoon 198721 1987 Season Typhoon 198723 >

Help